createdAt,value
2018-12-09T00:00:46.638Z,9.40
2018-12-09T00:03:14.994Z,9.40
2018-12-09T00:05:43.574Z,9.50
2018-12-09T00:08:12.159Z,9.60
2018-12-09T00:10:40.523Z,9.60
2018-12-09T00:13:08.990Z,9.60
2018-12-09T00:15:37.355Z,9.60
2018-12-09T00:18:05.682Z,9.70
2018-12-09T00:20:34.775Z,9.70
2018-12-09T00:23:03.138Z,9.70
2018-12-09T00:25:31.487Z,9.70
2018-12-09T00:28:00.162Z,9.70
2018-12-09T00:30:28.538Z,9.70
2018-12-09T00:32:56.890Z,9.70
2018-12-09T00:35:25.367Z,9.70
2018-12-09T00:37:53.731Z,9.70
2018-12-09T00:40:22.091Z,9.70
2018-12-09T00:42:50.483Z,9.70
2018-12-09T00:45:18.827Z,9.70
2018-12-09T00:47:47.179Z,9.70
2018-12-09T00:50:16.247Z,9.60
2018-12-09T00:52:44.624Z,9.60
2018-12-09T00:55:13.086Z,9.60
2018-12-09T00:57:41.512Z,9.60
2018-12-09T01:00:12.347Z,9.60
2018-12-09T01:02:40.851Z,9.60
2018-12-09T01:05:09.547Z,9.70
2018-12-09T01:07:38.004Z,9.70
2018-12-09T01:10:07.085Z,9.70
2018-12-09T01:12:35.451Z,9.70
2018-12-09T01:15:04.195Z,9.70
2018-12-09T01:17:32.543Z,9.70
2018-12-09T01:20:01.279Z,9.80
2018-12-09T01:22:29.648Z,9.70
2018-12-09T01:24:57.987Z,9.80
2018-12-09T01:27:26.347Z,9.70
2018-12-09T01:29:54.703Z,9.80
2018-12-09T01:32:23.353Z,9.80
2018-12-09T01:34:51.742Z,9.80
2018-12-09T01:37:20.128Z,9.80
2018-12-09T01:39:48.906Z,9.80
2018-12-09T01:42:18.088Z,9.80
2018-12-09T01:44:46.434Z,9.80
2018-12-09T01:47:14.788Z,9.80
2018-12-09T01:49:43.416Z,9.70
2018-12-09T01:52:11.760Z,9.70
2018-12-09T01:54:40.518Z,9.80
2018-12-09T01:57:09.238Z,9.70
2018-12-09T01:59:37.615Z,9.70
2018-12-09T02:02:06.358Z,9.70
2018-12-09T02:04:34.810Z,9.70
2018-12-09T02:07:03.355Z,9.80
2018-12-09T02:09:32.009Z,9.70
2018-12-09T02:12:00.517Z,9.70
2018-12-09T02:14:28.997Z,9.70
2018-12-09T02:16:57.439Z,9.70
2018-12-09T02:19:27.118Z,9.60
2018-12-09T02:21:55.831Z,9.60
2018-12-09T02:24:24.455Z,9.60
2018-12-09T02:26:52.946Z,9.70
2018-12-09T02:29:21.517Z,9.70
2018-12-09T02:31:49.894Z,9.70
2018-12-09T02:34:18.947Z,9.80
2018-12-09T02:36:47.402Z,9.70
2018-12-09T02:39:15.874Z,9.70
2018-12-09T02:41:44.686Z,9.70
2018-12-09T02:44:13.057Z,9.70
2018-12-09T02:46:41.538Z,9.80
2018-12-09T02:49:10.428Z,9.80
2018-12-09T02:51:38.874Z,9.80
2018-12-09T02:54:07.486Z,9.80
2018-12-09T02:56:36.946Z,9.80
2018-12-09T02:59:05.318Z,9.70
2018-12-09T03:01:33.803Z,9.70
2018-12-09T03:04:02.294Z,9.80
2018-12-09T03:06:30.952Z,9.70
2018-12-09T03:08:59.415Z,9.80
2018-12-09T03:11:28.308Z,9.80
2018-12-09T03:13:56.687Z,9.80
2018-12-09T03:16:25.053Z,9.70
2018-12-09T03:18:54.803Z,9.70
2018-12-09T03:21:23.143Z,9.70
2018-12-09T03:23:51.487Z,9.70
2018-12-09T03:26:19.936Z,9.70
2018-12-09T03:28:48.392Z,9.70
2018-12-09T03:31:16.746Z,9.60
2018-12-09T03:33:45.866Z,9.70
2018-12-09T03:36:14.214Z,9.70
2018-12-09T03:38:42.570Z,9.70
2018-12-09T03:41:11.506Z,9.70
2018-12-09T03:43:39.859Z,9.70
2018-12-09T03:46:08.238Z,9.60
2018-12-09T03:48:36.636Z,9.60
2018-12-09T03:51:05.086Z,9.50
2018-12-09T03:53:33.762Z,9.40
2018-12-09T03:56:02.451Z,9.40
2018-12-09T03:58:30.838Z,9.30
2018-12-09T04:00:59.281Z,9.30
2018-12-09T04:03:27.662Z,9.20
2018-12-09T04:05:56.025Z,9.30
2018-12-09T04:08:24.604Z,9.30
2018-12-09T04:10:53.255Z,9.20
2018-12-09T04:13:21.619Z,9.20
2018-12-09T04:15:50.133Z,9.20
2018-12-09T04:18:18.842Z,9.20
2018-12-09T04:20:47.233Z,9.20
2018-12-09T04:23:15.711Z,9.20
2018-12-09T04:25:44.115Z,9.20
2018-12-09T04:28:12.925Z,9.20
2018-12-09T04:30:41.266Z,9.20
2018-12-09T04:33:10.222Z,9.20
2018-12-09T04:35:38.596Z,9.20
2018-12-09T04:38:06.960Z,9.20
2018-12-09T04:40:35.343Z,9.20
2018-12-09T04:43:03.677Z,9.20
2018-12-09T04:45:32.031Z,9.20
2018-12-09T04:48:00.671Z,9.10
2018-12-09T04:50:29.034Z,9.10
2018-12-09T04:52:57.389Z,9.10
2018-12-09T04:55:26.078Z,9.20
2018-12-09T04:57:54.429Z,9.20
2018-12-09T05:00:34.275Z,9.20
2018-12-09T05:03:02.863Z,9.30
2018-12-09T05:05:31.218Z,9.30
2018-12-09T05:07:59.952Z,9.30
2018-12-09T05:10:28.481Z,9.20
2018-12-09T05:12:57.449Z,9.20
2018-12-09T05:15:26.322Z,9.20
2018-12-09T05:17:54.691Z,9.20
2018-12-09T05:20:23.078Z,9.10
2018-12-09T05:22:52.074Z,9.10
2018-12-09T05:25:20.435Z,9.10
2018-12-09T05:27:48.782Z,9.10
2018-12-09T05:30:17.829Z,9.10
2018-12-09T05:32:46.197Z,9.10
2018-12-09T05:35:14.554Z,9.10
2018-12-09T05:37:43.038Z,9.10
2018-12-09T05:40:12.108Z,9.10
2018-12-09T05:42:40.559Z,9.10
2018-12-09T05:45:08.966Z,9.10
2018-12-09T05:47:37.632Z,9.20
2018-12-09T05:50:06.249Z,9.10
2018-12-09T05:52:35.282Z,9.10
2018-12-09T05:55:05.320Z,9.10
2018-12-09T05:57:33.674Z,9.10
2018-12-09T06:00:02.995Z,9.10
2018-12-09T06:02:42.642Z,9.10
2018-12-09T06:05:11.015Z,9.10
2018-12-09T06:07:39.595Z,9.10
2018-12-09T06:10:08.277Z,9.10
2018-12-09T06:12:36.937Z,9.20
2018-12-09T06:15:05.850Z,9.20
2018-12-09T06:17:34.469Z,9.20
2018-12-09T06:20:04.211Z,9.10
2018-12-09T06:22:32.588Z,9.10
2018-12-09T06:25:01.209Z,9.10
2018-12-09T06:27:30.298Z,9.10
2018-12-09T06:29:58.744Z,9.10
2018-12-09T06:32:27.122Z,9.10
2018-12-09T06:34:55.565Z,9.10
2018-12-09T06:37:24.118Z,9.10
2018-12-09T06:39:52.498Z,9.00
2018-12-09T06:42:20.901Z,9.00
2018-12-09T06:44:50.227Z,8.90
2018-12-09T06:47:18.591Z,8.90
2018-12-09T06:49:46.974Z,9.00
2018-12-09T06:52:15.367Z,9.00
2018-12-09T06:54:44.656Z,9.00
2018-12-09T06:57:13.826Z,9.00
2018-12-09T06:59:42.191Z,8.90
2018-12-09T07:02:10.546Z,8.90
2018-12-09T07:04:39.274Z,9.00
2018-12-09T07:07:07.842Z,9.00
2018-12-09T07:09:36.468Z,9.00
2018-12-09T07:12:04.911Z,8.90
2018-12-09T07:14:33.339Z,8.90
2018-12-09T07:17:01.684Z,8.90
2018-12-09T07:19:30.758Z,8.90
2018-12-09T07:21:59.532Z,9.00
2018-12-09T07:24:27.892Z,9.00
2018-12-09T07:26:56.616Z,9.00
2018-12-09T07:29:24.962Z,9.00
2018-12-09T07:31:53.426Z,9.00
2018-12-09T07:34:22.445Z,9.00
2018-12-09T07:36:50.903Z,9.00
2018-12-09T07:39:19.355Z,9.00
2018-12-09T07:41:48.067Z,9.00
2018-12-09T07:44:16.450Z,9.00
2018-12-09T07:46:44.898Z,9.00
2018-12-09T07:49:13.326Z,8.90
2018-12-09T07:51:41.678Z,9.00
2018-12-09T07:54:10.018Z,8.90
2018-12-09T07:56:38.930Z,8.90
2018-12-09T07:59:09.811Z,8.90
2018-12-09T08:01:39.460Z,8.90
2018-12-09T08:04:07.794Z,8.90
2018-12-09T08:06:36.249Z,8.90
2018-12-09T08:09:06.162Z,8.90
2018-12-09T08:11:34.508Z,8.90
2018-12-09T08:14:02.864Z,9.00
2018-12-09T08:16:31.782Z,9.00
2018-12-09T08:19:00.164Z,9.00
2018-12-09T08:21:28.828Z,9.00
2018-12-09T08:23:57.423Z,9.00
2018-12-09T08:26:25.802Z,9.00
2018-12-09T08:28:54.242Z,9.10
2018-12-09T08:31:22.749Z,9.10
2018-12-09T08:33:51.144Z,9.10
2018-12-09T08:36:19.546Z,9.10
2018-12-09T08:38:48.186Z,9.20
2018-12-09T08:41:16.592Z,9.20
2018-12-09T08:43:45.078Z,9.20
2018-12-09T08:46:13.666Z,9.20
2018-12-09T08:48:42.144Z,9.30
2018-12-09T08:51:17.141Z,9.30
2018-12-09T08:53:45.466Z,9.40
2018-12-09T08:56:14.156Z,9.50
2018-12-09T08:58:43.519Z,9.50
2018-12-09T09:01:11.870Z,9.50
2018-12-09T09:03:40.224Z,9.40
2018-12-09T09:06:08.579Z,9.30
2018-12-09T09:08:36.927Z,9.00
2018-12-09T09:11:05.350Z,8.70
2018-12-09T09:13:33.854Z,8.30
2018-12-09T09:16:02.299Z,8.30
2018-12-09T09:18:31.058Z,8.40
2018-12-09T09:20:59.899Z,8.40
2018-12-09T09:23:29.031Z,8.50
2018-12-09T09:25:57.382Z,8.50
2018-12-09T09:28:26.020Z,8.60
2018-12-09T09:30:54.451Z,8.50
2018-12-09T09:33:23.062Z,8.50
2018-12-09T09:35:51.831Z,8.50
2018-12-09T09:38:20.228Z,8.40
2018-12-09T09:40:48.639Z,8.40
2018-12-09T09:43:17.052Z,8.40
2018-12-09T09:45:45.410Z,8.40
2018-12-09T09:48:13.775Z,8.30
2018-12-09T09:50:42.360Z,8.30
2018-12-09T09:53:10.703Z,8.30
2018-12-09T09:55:39.115Z,8.30
2018-12-09T09:58:07.582Z,8.30
2018-12-09T10:00:36.043Z,8.20
2018-12-09T10:03:07.861Z,8.30
2018-12-09T10:05:36.418Z,8.30
2018-12-09T10:08:05.007Z,8.30
2018-12-09T10:10:33.474Z,8.40
2018-12-09T10:13:02.276Z,8.40
2018-12-09T10:15:30.850Z,8.40
2018-12-09T10:17:59.253Z,8.40
2018-12-09T10:20:27.991Z,8.50
2018-12-09T10:22:57.075Z,8.60
2018-12-09T10:25:31.006Z,8.70
2018-12-09T10:27:59.753Z,8.80
2018-12-09T10:30:29.170Z,8.90
2018-12-09T10:32:57.592Z,8.90
2018-12-09T10:35:26.055Z,8.90
2018-12-09T10:37:54.915Z,8.90
2018-12-09T10:40:23.286Z,9.00
2018-12-09T10:42:51.875Z,9.00
2018-12-09T10:45:20.831Z,9.10
2018-12-09T10:47:49.172Z,9.10
2018-12-09T10:50:17.548Z,9.10
2018-12-09T10:52:46.435Z,9.10
2018-12-09T10:55:15.207Z,9.10
2018-12-09T10:57:43.769Z,9.00
2018-12-09T11:00:23.009Z,8.90
2018-12-09T11:02:51.367Z,9.00
2018-12-09T11:05:19.699Z,9.00
2018-12-09T11:07:48.831Z,9.10
2018-12-09T11:10:17.179Z,9.10
2018-12-09T11:12:46.499Z,9.20
2018-12-09T11:15:15.059Z,9.30
2018-12-09T11:17:43.512Z,9.20
2018-12-09T11:20:11.863Z,9.10
2018-12-09T11:22:40.586Z,9.10
2018-12-09T11:25:08.923Z,9.00
2018-12-09T11:27:37.272Z,9.00
2018-12-09T11:30:07.072Z,9.00
2018-12-09T11:32:35.438Z,8.90
2018-12-09T11:35:04.087Z,9.00
2018-12-09T11:37:32.450Z,9.00
2018-12-09T11:40:01.452Z,9.10
2018-12-09T11:42:29.817Z,9.10
2018-12-09T11:44:58.279Z,9.00
2018-12-09T11:47:26.787Z,9.00
2018-12-09T11:49:55.116Z,9.00
2018-12-09T11:52:24.035Z,9.00
2018-12-09T11:54:52.483Z,9.10
2018-12-09T11:57:20.832Z,9.30
2018-12-09T11:59:52.871Z,9.30
2018-12-09T12:02:21.341Z,9.30
2018-12-09T12:04:50.047Z,9.20
2018-12-09T12:07:18.797Z,9.10
2018-12-09T12:09:47.136Z,9.10
2018-12-09T12:12:15.465Z,9.30
2018-12-09T12:14:44.079Z,9.50
2018-12-09T12:17:12.520Z,9.50
2018-12-09T12:19:40.854Z,9.60
2018-12-09T12:22:09.578Z,9.60
2018-12-09T12:24:38.034Z,9.70
2018-12-09T12:27:06.374Z,9.70
2018-12-09T12:29:35.224Z,9.60
2018-12-09T12:32:03.570Z,9.50
2018-12-09T12:34:31.912Z,9.40
2018-12-09T12:37:00.786Z,9.30
2018-12-09T12:39:29.222Z,9.20
2018-12-09T12:41:57.550Z,9.10
2018-12-09T12:44:26.412Z,9.10
2018-12-09T12:46:54.858Z,9.10
2018-12-09T12:49:23.338Z,9.20
2018-12-09T12:51:51.817Z,9.40
2018-12-09T12:54:20.675Z,9.60
2018-12-09T12:56:49.004Z,9.90
2018-12-09T12:59:17.371Z,10.10
2018-12-09T13:01:45.877Z,10.10
2018-12-09T13:04:14.242Z,10.30
2018-12-09T13:06:43.187Z,10.40
2018-12-09T13:09:11.549Z,10.50
2018-12-09T13:11:39.886Z,10.50
2018-12-09T13:14:08.526Z,10.40
2018-12-09T13:16:36.939Z,10.30
2018-12-09T13:19:05.386Z,10.10
2018-12-09T13:21:34.029Z,9.90
2018-12-09T13:24:02.451Z,9.80
2018-12-09T13:26:30.958Z,9.80
2018-12-09T13:28:59.742Z,9.80
2018-12-09T13:31:28.095Z,9.70
2018-12-09T13:33:56.662Z,9.60
2018-12-09T13:36:25.451Z,9.50
2018-12-09T13:38:53.787Z,9.50
2018-12-09T13:41:22.226Z,9.40
2018-12-09T13:43:50.926Z,9.30
2018-12-09T13:46:19.267Z,9.30
2018-12-09T13:48:47.598Z,9.40
2018-12-09T13:51:16.457Z,9.30
2018-12-09T13:53:44.781Z,9.10
2018-12-09T13:56:13.103Z,9.10
2018-12-09T13:58:41.455Z,9.00
2018-12-09T14:01:09.791Z,9.10
2018-12-09T14:03:38.359Z,9.30
2018-12-09T14:06:06.989Z,9.50
2018-12-09T14:08:35.397Z,9.50
2018-12-09T14:11:03.898Z,9.40
2018-12-09T14:13:32.501Z,9.40
2018-12-09T14:16:00.842Z,9.40
2018-12-09T14:18:29.681Z,9.30
2018-12-09T14:20:58.067Z,9.20
2018-12-09T14:23:26.430Z,9.20
2018-12-09T14:25:54.994Z,9.30
2018-12-09T14:28:23.990Z,9.20
2018-12-09T14:30:52.375Z,9.10
2018-12-09T14:33:20.708Z,9.10
2018-12-09T14:35:49.646Z,9.00
2018-12-09T14:38:17.996Z,9.10
2018-12-09T14:40:46.539Z,9.20
2018-12-09T14:43:15.039Z,9.10
2018-12-09T14:45:48.970Z,9.10
2018-12-09T14:48:13.887Z,9.00
2018-12-09T14:50:42.559Z,8.90
2018-12-09T14:53:10.911Z,8.80
2018-12-09T14:55:39.254Z,8.70
2018-12-09T14:58:07.627Z,8.70
2018-12-09T15:00:36.046Z,8.60
2018-12-09T15:03:04.415Z,8.50
2018-12-09T15:05:32.812Z,8.50
2018-12-09T15:08:01.162Z,8.50
2018-12-09T15:10:29.517Z,8.50
2018-12-09T15:12:58.510Z,8.40
2018-12-09T15:15:26.899Z,8.40
2018-12-09T15:17:55.476Z,8.30
2018-12-09T15:20:24.901Z,8.30
2018-12-09T15:22:53.257Z,8.30
2018-12-09T15:25:21.624Z,8.30
2018-12-09T15:27:49.999Z,8.30
2018-12-09T15:30:18.594Z,8.20
2018-12-09T15:32:47.478Z,8.30
2018-12-09T15:35:17.190Z,8.30
2018-12-09T15:37:45.655Z,8.40
2018-12-09T15:40:14.199Z,8.30
2018-12-09T15:42:42.576Z,7.90
2018-12-09T15:45:10.973Z,7.90
2018-12-09T15:47:39.351Z,7.90
2018-12-09T15:50:10.038Z,8.00
2018-12-09T15:52:38.554Z,8.00
2018-12-09T15:55:07.109Z,8.00
2018-12-09T15:57:35.986Z,7.90
2018-12-09T16:00:04.807Z,7.90
2018-12-09T16:02:33.183Z,7.90
2018-12-09T16:05:02.033Z,7.90
2018-12-09T16:07:30.474Z,7.90
2018-12-09T16:09:59.814Z,7.90
2018-12-09T16:12:28.711Z,7.90
2018-12-09T16:14:57.079Z,7.80
2018-12-09T16:17:25.457Z,7.80
2018-12-09T16:19:55.275Z,7.80
2018-12-09T16:22:23.766Z,7.80
2018-12-09T16:24:52.120Z,7.80
2018-12-09T16:27:20.869Z,7.80
2018-12-09T16:29:49.223Z,7.80
2018-12-09T16:32:17.667Z,7.70
2018-12-09T16:34:46.563Z,7.80
2018-12-09T16:37:14.924Z,7.70
2018-12-09T16:39:43.355Z,7.70
2018-12-09T16:42:12.151Z,7.60
2018-12-09T16:44:40.622Z,7.60
2018-12-09T16:47:08.962Z,7.50
2018-12-09T16:49:37.883Z,7.50
2018-12-09T16:52:06.244Z,7.50
2018-12-09T16:54:34.583Z,7.60
2018-12-09T16:57:03.043Z,7.60
2018-12-09T16:59:31.387Z,7.70
2018-12-09T17:01:59.891Z,7.70
2018-12-09T17:04:29.047Z,7.70
2018-12-09T17:06:57.623Z,7.70
2018-12-09T17:09:25.967Z,7.70
2018-12-09T17:11:54.442Z,7.70
2018-12-09T17:14:22.778Z,7.70
2018-12-09T17:16:51.126Z,7.70
2018-12-09T17:19:19.614Z,7.70
2018-12-09T17:21:48.232Z,7.70
2018-12-09T17:24:16.592Z,7.70
2018-12-09T17:26:45.547Z,7.80
2018-12-09T17:29:14.294Z,7.80
2018-12-09T17:31:42.667Z,7.80
2018-12-09T17:34:12.115Z,7.80
2018-12-09T17:36:40.523Z,7.80
2018-12-09T17:39:09.023Z,7.70
2018-12-09T17:41:37.810Z,7.60
2018-12-09T17:44:06.330Z,7.50
2018-12-09T17:46:35.048Z,7.40
2018-12-09T17:49:03.550Z,7.40
2018-12-09T17:51:31.948Z,7.30
2018-12-09T17:54:00.295Z,7.20
2018-12-09T17:56:29.055Z,7.20
2018-12-09T17:58:57.406Z,7.10
2018-12-09T18:01:25.759Z,7.10
2018-12-09T18:03:54.224Z,7.00
2018-12-09T18:06:22.580Z,7.00
2018-12-09T18:08:50.938Z,7.00
2018-12-09T18:11:19.572Z,7.00
2018-12-09T18:13:47.911Z,7.00
2018-12-09T18:16:16.267Z,7.00
2018-12-09T18:18:45.251Z,7.00
2018-12-09T18:21:13.591Z,6.90
2018-12-09T18:23:42.087Z,6.90
2018-12-09T18:26:10.497Z,6.90
2018-12-09T18:28:38.951Z,6.90
2018-12-09T18:31:07.307Z,6.80
2018-12-09T18:33:36.543Z,6.80
2018-12-09T18:36:05.102Z,6.80
2018-12-09T18:38:34.338Z,6.80
2018-12-09T18:41:03.304Z,6.80
2018-12-09T18:43:31.744Z,6.80
2018-12-09T18:46:00.082Z,6.90
2018-12-09T18:48:28.609Z,7.00
2018-12-09T18:50:56.990Z,7.00
2018-12-09T18:53:25.731Z,7.10
2018-12-09T18:55:54.467Z,7.00
2018-12-09T18:58:22.842Z,7.00
2018-12-09T19:00:51.186Z,7.10
2018-12-09T19:03:20.527Z,7.00
2018-12-09T19:05:49.007Z,7.00
2018-12-09T19:08:17.385Z,7.00
2018-12-09T19:10:45.889Z,7.10
2018-12-09T19:13:14.381Z,7.10
2018-12-09T19:15:42.918Z,7.20
2018-12-09T19:18:11.829Z,7.20
2018-12-09T19:20:40.174Z,7.30
2018-12-09T19:23:08.927Z,7.20
2018-12-09T19:25:38.463Z,7.10
2018-12-09T19:28:06.832Z,7.10
2018-12-09T19:30:48.382Z,7.00
2018-12-09T19:33:16.974Z,7.00
2018-12-09T19:35:45.362Z,6.90
2018-12-09T19:38:14.429Z,6.80
2018-12-09T19:40:42.941Z,6.80
2018-12-09T19:43:13.291Z,6.70
2018-12-09T19:45:42.479Z,6.70
2018-12-09T19:48:10.846Z,6.70
2018-12-09T19:50:39.175Z,6.80
2018-12-09T19:53:07.591Z,6.80
2018-12-09T19:55:36.054Z,6.70
2018-12-09T19:58:04.833Z,6.70
2018-12-09T20:00:33.530Z,6.70
2018-12-09T20:03:01.947Z,6.70
2018-12-09T20:05:30.410Z,6.60
2018-12-09T20:07:59.198Z,6.50
2018-12-09T20:10:27.600Z,6.50
2018-12-09T20:12:57.153Z,6.50
2018-12-09T20:15:25.787Z,6.40
2018-12-09T20:17:54.146Z,6.30
2018-12-09T20:20:22.604Z,6.30
2018-12-09T20:22:51.643Z,6.20
2018-12-09T20:25:20.031Z,6.20
2018-12-09T20:27:48.474Z,6.20
2018-12-09T20:30:16.938Z,6.20
2018-12-09T20:32:45.611Z,6.10
2018-12-09T20:35:14.223Z,6.10
2018-12-09T20:37:43.206Z,6.10
2018-12-09T20:40:11.818Z,6.10
2018-12-09T20:42:48.039Z,6.10
2018-12-09T20:45:10.650Z,6.20
2018-12-09T20:47:39.223Z,6.30
2018-12-09T20:50:08.496Z,6.40
2018-12-09T20:52:37.194Z,6.60
2018-12-09T20:55:06.427Z,6.70
2018-12-09T20:57:34.978Z,6.70
2018-12-09T21:00:04.015Z,6.70
2018-12-09T21:02:32.718Z,6.70
2018-12-09T21:05:01.370Z,6.60
2018-12-09T21:07:30.587Z,6.50
2018-12-09T21:09:59.014Z,6.40
2018-12-09T21:12:28.004Z,6.30
2018-12-09T21:14:57.016Z,6.30
2018-12-09T21:17:25.342Z,6.30
2018-12-09T21:19:53.702Z,6.20
2018-12-09T21:22:22.797Z,6.20
2018-12-09T21:24:51.370Z,6.20
2018-12-09T21:27:19.714Z,6.10
2018-12-09T21:29:48.519Z,6.10
2018-12-09T21:32:17.349Z,6.10
2018-12-09T21:34:45.814Z,6.20
2018-12-09T21:37:14.523Z,6.30
2018-12-09T21:39:42.874Z,6.60
2018-12-09T21:42:11.823Z,6.50
2018-12-09T21:44:40.278Z,6.40
2018-12-09T21:47:08.659Z,6.40
2018-12-09T21:49:37.055Z,6.40
2018-12-09T21:52:05.468Z,6.30
2018-12-09T21:54:33.810Z,6.40
2018-12-09T21:57:02.471Z,6.40
2018-12-09T21:59:31.037Z,6.40
2018-12-09T22:01:59.367Z,6.30
2018-12-09T22:04:27.735Z,6.20
2018-12-09T22:06:56.171Z,6.10
2018-12-09T22:09:24.534Z,6.00
2018-12-09T22:11:56.375Z,6.10
2018-12-09T22:14:24.775Z,6.00
2018-12-09T22:16:53.175Z,6.00
2018-12-09T22:19:21.868Z,6.00
2018-12-09T22:21:50.203Z,6.10
2018-12-09T22:24:18.542Z,6.10
2018-12-09T22:26:47.031Z,6.10
2018-12-09T22:29:15.371Z,6.00
2018-12-09T22:31:43.815Z,6.00
2018-12-09T22:34:12.727Z,6.00
2018-12-09T22:36:41.071Z,5.90
2018-12-09T22:39:09.414Z,5.80
2018-12-09T22:41:38.047Z,5.80
2018-12-09T22:44:06.470Z,5.80
2018-12-09T22:46:34.815Z,5.70
2018-12-09T22:49:03.333Z,5.60
2018-12-09T22:51:31.674Z,5.60
2018-12-09T22:54:00.022Z,5.60
2018-12-09T22:56:28.731Z,5.60
2018-12-09T22:58:57.161Z,5.70
2018-12-09T23:01:25.599Z,5.70
2018-12-09T23:03:54.790Z,5.80
2018-12-09T23:06:23.239Z,6.20
2018-12-09T23:08:51.678Z,6.30
2018-12-09T23:11:20.066Z,6.40
2018-12-09T23:13:48.534Z,6.30
2018-12-09T23:16:16.931Z,6.20
2018-12-09T23:18:45.679Z,6.10
2018-12-09T23:21:14.026Z,6.00
2018-12-09T23:23:42.369Z,5.90
2018-12-09T23:26:10.728Z,5.80
2018-12-09T23:28:39.078Z,5.70
2018-12-09T23:31:07.422Z,5.60
2018-12-09T23:33:35.779Z,5.50
2018-12-09T23:36:04.110Z,5.40
2018-12-09T23:38:32.451Z,5.30
2018-12-09T23:41:01.062Z,5.30
2018-12-09T23:43:29.407Z,5.30
2018-12-09T23:45:58.094Z,5.30
2018-12-09T23:48:26.473Z,5.30
2018-12-09T23:50:54.828Z,5.30
2018-12-09T23:53:23.183Z,5.40
2018-12-09T23:55:52.048Z,5.60
2018-12-09T23:58:20.407Z,5.60
